Time;durP1;ratioP1;P1;durP2;ratioP2;P2;SDS_P1;SDS_P2;PMS_P1;PMS_P2;Temp;Humidity;BMP_temperature;BMP_pressure;BME280_temperature;BME280_humidity;BME280_pressure;Samples;Min_cycle;Max_cycle;Signal;HPM_P1;HPM_P2
2021/07/21 00:00:47;;;;;;;8.97;1.00;;;11.60;95.00;;;;;;5069956;28;20328;-69
2021/07/21 00:03:14;;;;;;;3.73;1.00;;;11.60;95.10;;;;;;5070614;28;20194;-66
2021/07/21 00:05:42;;;;;;;4.70;1.03;;;11.70;94.80;;;;;;5072994;28;20292;-69
2021/07/21 00:08:10;;;;;;;6.70;1.30;;;11.70;94.40;;;;;;5073520;28;20222;-67
2021/07/21 00:10:38;;;;;;;7.63;1.50;;;11.90;94.30;;;;;;5070718;28;20613;-74
2021/07/21 00:21:14;;;;;;;5.87;1.20;;;12.50;93.50;;;;;;5063494;28;20273;-72
2021/07/21 00:23:43;;;;;;;7.17;1.20;;;12.40;93.50;;;;;;5073460;28;20214;-69
2021/07/21 00:26:10;;;;;;;4.00;1.20;;;12.50;93.50;;;;;;5074676;28;20187;-71
2021/07/21 00:28:41;;;;;;;8.53;1.13;;;12.50;94.00;;;;;;5076258;28;20183;-75
2021/07/21 00:31:10;;;;;;;4.10;1.13;;;12.50;93.90;;;;;;5072259;28;20201;-77
2021/07/21 00:33:38;;;;;;;5.00;1.30;;;12.50;94.00;;;;;;5074960;28;20190;-73
2021/07/21 00:36:06;;;;;;;5.80;1.33;;;12.50;93.90;;;;;;5072183;28;20218;-66
2021/07/21 00:38:33;;;;;;;5.33;1.20;;;12.60;94.00;;;;;;5075795;28;20652;-71
2021/07/21 00:41:00;;;;;;;6.63;1.30;;;12.60;94.00;;;;;;5073673;28;20183;-74
2021/07/21 00:43:29;;;;;;;6.23;1.47;;;12.80;93.90;;;;;;5072232;28;20182;-67
2021/07/21 00:45:56;;;;;;;5.20;1.30;;;12.80;93.90;;;;;;5075707;28;20193;-73
2021/07/21 00:48:24;;;;;;;4.57;1.20;;;12.90;94.10;;;;;;5072051;28;20722;-70
2021/07/21 00:50:54;;;;;;;7.17;1.40;;;13.10;94.20;;;;;;5073629;28;20624;-71
2021/07/21 00:53:23;;;;;;;4.20;1.73;;;13.00;94.00;;;;;;5036805;28;20536;-68
2021/07/21 00:55:52;;;;;;;5.30;1.13;;;12.90;94.20;;;;;;5086791;28;20210;-69
2021/07/21 00:58:19;;;;;;;8.60;1.70;;;12.80;94.60;;;;;;5071091;28;20486;-70
2021/07/21 01:00:46;;;;;;;6.60;1.57;;;12.90;94.20;;;;;;5070420;28;20175;-73
2021/07/21 01:03:14;;;;;;;7.43;1.53;;;12.90;94.30;;;;;;5069548;28;20191;-73
2021/07/21 01:05:42;;;;;;;6.93;1.60;;;13.00;94.40;;;;;;5072542;28;20179;-76
2021/07/21 01:08:12;;;;;;;4.60;1.53;;;13.10;94.60;;;;;;5073559;28;20190;-76
2021/07/21 01:11:03;;;;;;;9.53;1.80;;;13.20;94.10;;;;;;5071720;28;20296;-64
2021/07/21 01:13:58;;;;;;;9.73;1.33;;;13.30;94.00;;;;;;5072025;28;20195;-66
2021/07/21 01:16:33;;;;;;;7.73;1.17;;;13.50;93.80;;;;;;5070854;28;20217;-68
2021/07/21 01:19:11;;;;;;;6.50;1.50;;;13.50;93.80;;;;;;5076352;28;20236;-72
2021/07/21 01:21:50;;;;;;;6.60;1.43;;;13.60;93.90;;;;;;5040619;28;20953;-69
2021/07/21 01:24:30;;;;;;;5.93;1.30;;;13.60;93.60;;;;;;5075667;28;20686;-68
2021/07/21 01:27:10;;;;;;;5.07;1.23;;;13.60;93.80;;;;;;5073620;28;20176;-67
2021/07/21 01:29:38;;;;;;;5.97;1.87;;;13.40;93.70;;;;;;5069217;28;20637;-68
2021/07/21 01:32:09;;;;;;;7.57;1.60;;;13.60;94.10;;;;;;5075709;28;20297;-63
2021/07/21 01:34:38;;;;;;;5.40;1.23;;;13.50;93.10;;;;;;5076198;28;20187;-72
2021/07/21 01:37:06;;;;;;;5.17;1.20;;;13.40;93.70;;;;;;5075989;28;20207;-65
2021/07/21 01:39:40;;;;;;;9.07;1.60;;;13.40;94.00;;;;;;5075981;28;20226;-68
2021/07/21 01:42:13;;;;;;;6.90;1.40;;;13.50;93.80;;;;;;5074337;28;20189;-77
2021/07/21 01:44:43;;;;;;;8.30;1.70;;;13.60;93.40;;;;;;5075387;28;20178;-65
2021/07/21 01:47:15;;;;;;;6.30;1.40;;;13.50;93.70;;;;;;5075103;28;20179;-69
2021/07/21 01:49:43;;;;;;;8.37;1.70;;;13.50;93.40;;;;;;5075843;28;20661;-71
2021/07/21 01:52:14;;;;;;;11.60;1.67;;;13.60;93.50;;;;;;5080184;28;20238;-70
2021/07/21 01:54:46;;;;;;;6.53;1.73;;;13.60;93.30;;;;;;5057803;28;20214;-65
2021/07/21 01:57:14;;;;;;;8.73;1.37;;;13.60;93.60;;;;;;5073413;28;20265;-71
2021/07/21 01:59:47;;;;;;;3.67;1.67;;;13.80;93.60;;;;;;5069166;28;20210;-66
2021/07/21 02:02:16;;;;;;;6.20;2.27;;;13.90;92.90;;;;;;5070517;28;20214;-68
2021/07/21 02:04:45;;;;;;;8.60;1.73;;;13.80;93.30;;;;;;5065986;28;20176;-67
2021/07/21 02:07:14;;;;;;;8.30;1.60;;;13.80;93.40;;;;;;5074193;28;20183;-66
2021/07/21 02:09:46;;;;;;;8.47;1.70;;;13.80;93.50;;;;;;5071431;28;20256;-70
2021/07/21 02:12:14;;;;;;;7.93;1.57;;;13.80;93.30;;;;;;5075070;28;20175;-69
2021/07/21 02:14:47;;;;;;;3.47;1.23;;;14.00;93.00;;;;;;5074979;28;20693;-65
2021/07/21 02:17:15;;;;;;;5.20;1.00;;;14.10;92.60;;;;;;5074053;28;20307;-66
2021/07/21 02:19:45;;;;;;;5.77;1.50;;;14.00;92.00;;;;;;5074964;28;20175;-74
2021/07/21 02:22:16;;;;;;;4.07;1.40;;;14.10;91.80;;;;;;5074352;28;20272;-72
2021/07/21 02:24:45;;;;;;;4.40;1.30;;;14.50;91.00;;;;;;5074620;28;20275;-72
2021/07/21 02:27:13;;;;;;;7.50;2.23;;;14.70;90.60;;;;;;5067543;28;20209;-72
2021/07/21 02:29:41;;;;;;;4.83;1.23;;;15.10;90.50;;;;;;5072982;28;20171;-74
2021/07/21 02:32:12;;;;;;;3.37;1.20;;;15.30;89.70;;;;;;5073767;28;20668;-76
2021/07/21 02:34:42;;;;;;;7.47;1.50;;;15.40;87.10;;;;;;5074547;28;20219;-66
2021/07/21 02:37:13;;;;;;;5.53;1.47;;;15.40;87.00;;;;;;5074378;28;20265;-73
2021/07/21 02:39:41;;;;;;;11.00;2.60;;;15.70;85.70;;;;;;5074421;28;20190;-69
2021/07/21 02:42:09;;;;;;;3.93;1.27;;;15.90;85.00;;;;;;5074411;28;20649;-76
2021/07/21 02:44:36;;;;;;;8.20;1.30;;;15.50;86.50;;;;;;5073942;28;20171;-71
2021/07/21 02:47:04;;;;;;;7.97;1.23;;;15.30;87.60;;;;;;5074200;28;20659;-70
2021/07/21 02:49:32;;;;;;;4.83;1.30;;;15.40;87.50;;;;;;5066875;28;20538;-73
2021/07/21 02:52:22;;;;;;;6.90;1.40;;;15.50;87.90;;;;;;5071558;28;20186;-74
2021/07/21 02:55:01;;;;;;;7.60;1.47;;;15.30;86.80;;;;;;5073559;28;20617;-71
2021/07/21 02:58:02;;;;;;;6.67;1.43;;;15.30;88.50;;;;;;5056478;28;20324;-70
2021/07/21 03:00:32;;;;;;;9.00;1.73;;;15.20;87.80;;;;;;5052585;28;20191;-65
2021/07/21 03:03:01;;;;;;;4.23;1.33;;;14.90;88.40;;;;;;5066465;28;20536;-62
2021/07/21 03:05:31;;;;;;;5.87;1.50;;;14.60;90.10;;;;;;5073452;28;20176;-64
2021/07/21 03:08:00;;;;;;;8.07;1.57;;;14.50;89.20;;;;;;5072974;28;20237;-65
2021/07/21 03:10:29;;;;;;;5.83;1.40;;;14.50;90.10;;;;;;5074092;28;20233;-69
2021/07/21 03:13:11;;;;;;;9.63;2.13;;;14.50;90.60;;;;;;5073775;28;20219;-68
2021/07/21 03:15:43;;;;;;;8.83;1.50;;;14.50;90.60;;;;;;5061113;28;20630;-73
2021/07/21 03:18:13;;;;;;;7.47;1.93;;;14.60;90.70;;;;;;5055199;28;20255;-64
2021/07/21 03:20:42;;;;;;;6.27;1.40;;;14.80;90.20;;;;;;5074764;28;20176;-65
2021/07/21 03:23:11;;;;;;;8.37;1.83;;;14.70;89.80;;;;;;5074064;28;20186;-73
2021/07/21 03:25:40;;;;;;;4.30;1.40;;;14.60;90.00;;;;;;5067692;28;20284;-65
2021/07/21 03:28:07;;;;;;;7.67;2.13;;;14.80;89.40;;;;;;5079799;28;20236;-72
2021/07/21 03:30:36;;;;;;;8.00;1.43;;;14.80;89.60;;;;;;5070678;28;20637;-68
2021/07/21 03:33:07;;;;;;;8.23;1.70;;;15.30;88.60;;;;;;5072414;28;20218;-68
2021/07/21 03:35:36;;;;;;;9.23;1.43;;;15.70;88.00;;;;;;5079885;28;20192;-69
2021/07/21 03:38:06;;;;;;;10.67;1.60;;;15.60;86.80;;;;;;5055349;28;20206;-70
2021/07/21 03:40:34;;;;;;;7.07;1.20;;;15.30;87.80;;;;;;5072935;28;20191;-68
2021/07/21 03:43:03;;;;;;;5.27;1.30;;;14.90;88.40;;;;;;5070237;28;20215;-73
2021/07/21 03:45:33;;;;;;;3.93;1.23;;;14.70;89.90;;;;;;5072973;28;20224;-72
2021/07/21 03:48:02;;;;;;;4.83;1.33;;;14.80;88.90;;;;;;5072319;28;20242;-66
2021/07/21 03:50:29;;;;;;;3.87;1.40;;;15.10;87.60;;;;;;5072645;28;20181;-73
2021/07/21 03:52:59;;;;;;;4.63;1.47;;;15.50;86.80;;;;;;5055951;28;20180;-65
2021/07/21 03:55:29;;;;;;;7.47;1.27;;;15.60;85.40;;;;;;5054933;28;20177;-69
2021/07/21 03:57:56;;;;;;;4.10;1.10;;;16.00;85.00;;;;;;5072530;28;20699;-72
2021/07/21 04:00:24;;;;;;;7.30;1.47;;;16.40;81.80;;;;;;5070829;28;20186;-70
2021/07/21 04:02:54;;;;;;;1.97;0.83;;;16.80;80.80;;;;;;5072102;28;20292;-73
2021/07/21 04:05:25;;;;;;;5.07;1.20;;;16.90;77.90;;;;;;5070714;28;20532;-68
2021/07/21 04:07:54;;;;;;;3.83;1.30;;;17.00;77.80;;;;;;5070742;28;20665;-68
2021/07/21 04:10:35;;;;;;;2.57;1.07;;;17.20;77.60;;;;;;5074309;28;20735;-68
2021/07/21 04:13:04;;;;;;;6.57;1.63;;;17.30;78.20;;;;;;5055161;28;20229;-70
2021/07/21 04:15:32;;;;;;;9.43;2.07;;;17.00;79.20;;;;;;5070565;28;20280;-76
2021/07/21 04:18:01;;;;;;;5.03;1.63;;;16.70;80.60;;;;;;5074176;28;20223;-67
2021/07/21 04:20:29;;;;;;;6.30;1.37;;;16.90;80.30;;;;;;5070772;28;20252;-71
2021/07/21 04:22:58;;;;;;;4.63;1.23;;;17.20;78.30;;;;;;5069809;28;20191;-70
2021/07/21 04:25:26;;;;;;;6.77;1.63;;;17.10;78.10;;;;;;5069356;28;20706;-69
2021/07/21 04:30:48;;;;;;;8.07;2.10;;;17.60;76.30;;;;;;5348739;22;22526;-66
2021/07/21 04:33:15;;;;;;;4.47;1.20;;;16.90;76.50;;;;;;5002730;28;20196;-67
2021/07/21 04:35:43;;;;;;;13.90;1.60;;;16.30;78.60;;;;;;5001569;28;20541;-67
2021/07/21 04:38:18;;;;;;;5.07;1.17;;;16.20;79.30;;;;;;5009634;28;20644;-69
2021/07/21 04:40:50;;;;;;;4.63;1.40;;;16.50;78.20;;;;;;5004234;28;20251;-67
2021/07/21 04:43:17;;;;;;;6.27;1.47;;;17.20;77.70;;;;;;5010264;28;20189;-70
2021/07/21 04:45:52;;;;;;;7.53;1.73;;;17.20;75.30;;;;;;5012284;28;20291;-68
2021/07/21 04:48:20;;;;;;;8.00;1.03;;;17.50;74.30;;;;;;5007985;28;20573;-68
2021/07/21 04:50:50;;;;;;;6.27;1.37;;;17.20;73.80;;;;;;5007328;28;20224;-68
2021/07/21 04:53:17;;;;;;;5.80;1.90;;;17.50;73.80;;;;;;5002312;28;20662;-68
2021/07/21 04:55:48;;;;;;;5.73;1.70;;;17.20;74.00;;;;;;4994948;28;20194;-72
2021/07/21 04:58:18;;;;;;;6.73;1.50;;;17.20;73.60;;;;;;5012933;28;20189;-70
2021/07/21 05:00:45;;;;;;;5.70;1.47;;;17.00;73.40;;;;;;5012112;28;20185;-68
2021/07/21 05:03:13;;;;;;;4.43;1.27;;;17.40;73.00;;;;;;5008774;28;20209;-68
2021/07/21 05:05:40;;;;;;;7.40;1.30;;;17.80;72.10;;;;;;4998718;28;20236;-68
2021/07/21 05:08:07;;;;;;;4.60;0.93;;;18.00;71.30;;;;;;5011139;28;20185;-67
2021/07/21 05:10:35;;;;;;;5.60;0.97;;;17.80;70.70;;;;;;5002910;28;20266;-69
2021/07/21 05:13:03;;;;;;;4.10;1.30;;;17.60;69.70;;;;;;5008447;28;20653;-70
2021/07/21 05:15:31;;;;;;;3.83;0.80;;;16.80;71.00;;;;;;5012148;28;20176;-73
2021/07/21 05:17:59;;;;;;;5.93;1.13;;;16.70;71.40;;;;;;5010059;28;20256;-68
2021/07/21 05:20:26;;;;;;;3.23;1.10;;;16.90;71.10;;;;;;5004353;28;20683;-67
2021/07/21 05:22:54;;;;;;;4.57;0.90;;;17.10;70.70;;;;;;5006372;28;20219;-67
2021/07/21 05:25:21;;;;;;;3.17;0.90;;;17.00;70.70;;;;;;5011440;28;20189;-68
2021/07/21 05:27:48;;;;;;;3.60;0.80;;;16.80;70.20;;;;;;5009399;28;20192;-66
2021/07/21 05:30:17;;;;;;;5.20;1.00;;;17.00;70.70;;;;;;5001136;28;20224;-67
2021/07/21 05:32:44;;;;;;;3.47;1.10;;;17.60;69.90;;;;;;5022227;28;20240;-66
2021/07/21 05:35:12;;;;;;;3.33;1.23;;;17.50;70.70;;;;;;5031979;28;20184;-65
2021/07/21 05:37:39;;;;;;;4.43;1.17;;;17.60;71.30;;;;;;5031341;28;20220;-65
2021/07/21 05:40:08;;;;;;;6.47;1.60;;;18.00;70.10;;;;;;5020905;28;20268;-68
2021/07/21 05:42:35;;;;;;;5.70;1.20;;;18.30;70.00;;;;;;5026712;28;20185;-66
2021/07/21 05:45:03;;;;;;;6.07;1.40;;;18.10;69.80;;;;;;5029758;28;20184;-66
2021/07/21 05:47:30;;;;;;;5.30;1.47;;;18.60;69.70;;;;;;5025760;28;20538;-66
2021/07/21 05:49:58;;;;;;;3.80;1.00;;;18.30;69.20;;;;;;5025525;28;20193;-66
2021/07/21 05:52:25;;;;;;;5.57;1.37;;;18.30;70.00;;;;;;5016440;28;20279;-66
2021/07/21 05:54:52;;;;;;;7.07;1.40;;;18.50;68.90;;;;;;5020940;28;20185;-66
2021/07/21 05:57:20;;;;;;;4.53;1.37;;;18.10;69.40;;;;;;5027811;28;20209;-67
2021/07/21 05:59:47;;;;;;;5.43;1.63;;;17.90;70.20;;;;;;5040633;28;20222;-67
2021/07/21 06:02:14;;;;;;;6.93;1.20;;;18.10;70.40;;;;;;5038641;28;20185;-66
2021/07/21 06:04:42;;;;;;;6.20;1.20;;;18.00;70.70;;;;;;5025633;28;20635;-66
2021/07/21 06:07:09;;;;;;;6.43;1.13;;;17.60;70.70;;;;;;5023267;28;20754;-65
2021/07/21 06:09:37;;;;;;;3.80;1.27;;;17.40;70.80;;;;;;5027210;28;20181;-67
2021/07/21 06:12:04;;;;;;;6.03;1.70;;;17.30;71.30;;;;;;5039572;28;20191;-67
2021/07/21 06:14:32;;;;;;;10.60;1.03;;;17.30;71.50;;;;;;5035479;28;20246;-66
2021/07/21 06:17:01;;;;;;;3.33;0.90;;;17.60;70.90;;;;;;5034828;28;20546;-68
2021/07/21 06:19:33;;;;;;;5.70;1.27;;;17.30;70.70;;;;;;5034828;28;20197;-67
2021/07/21 06:22:04;;;;;;;9.50;1.30;;;16.80;71.40;;;;;;5034256;28;20274;-67
2021/07/21 06:24:31;;;;;;;4.20;0.87;;;16.70;72.10;;;;;;5028961;28;20181;-69
2021/07/21 06:26:59;;;;;;;5.60;0.90;;;16.20;72.90;;;;;;5009649;28;20635;-67
2021/07/21 06:29:27;;;;;;;2.10;0.97;;;15.60;74.90;;;;;;5034920;28;20193;-67
2021/07/21 06:31:55;;;;;;;5.43;1.00;;;15.30;76.60;;;;;;5032668;28;20228;-67
2021/07/21 06:34:22;;;;;;;5.97;1.13;;;15.00;78.60;;;;;;5021678;28;20176;-66
2021/07/21 06:36:50;;;;;;;4.00;1.37;;;14.80;80.00;;;;;;5030555;28;20216;-66
2021/07/21 06:39:17;;;;;;;4.83;1.27;;;14.60;82.00;;;;;;5035136;28;20185;-66
2021/07/21 06:41:44;;;;;;;5.20;1.20;;;14.50;83.10;;;;;;5034733;28;20216;-66
2021/07/21 06:44:12;;;;;;;6.50;1.47;;;14.40;84.20;;;;;;5031805;28;20638;-66
2021/07/21 06:46:40;;;;;;;11.87;1.67;;;14.30;85.30;;;;;;5021966;28;20180;-66
2021/07/21 06:49:07;;;;;;;4.10;1.30;;;14.20;86.00;;;;;;5035634;28;20189;-66
2021/07/21 06:51:35;;;;;;;5.50;1.37;;;14.20;86.60;;;;;;5035423;28;20760;-66
2021/07/21 06:54:02;;;;;;;9.13;1.37;;;14.10;87.50;;;;;;5024972;28;20184;-66
2021/07/21 06:56:30;;;;;;;6.37;1.27;;;14.00;88.00;;;;;;5032428;28;20221;-66
2021/07/21 06:58:58;;;;;;;9.03;1.43;;;13.90;89.00;;;;;;5032139;28;20661;-66
2021/07/21 07:01:26;;;;;;;6.27;1.60;;;13.80;89.20;;;;;;5034292;28;20619;-67
2021/07/21 07:03:54;;;;;;;8.00;1.70;;;13.80;90.40;;;;;;5032240;28;20180;-67
2021/07/21 07:06:21;;;;;;;6.67;1.53;;;13.70;90.30;;;;;;5013520;28;20177;-67
2021/07/21 07:08:48;;;;;;;4.90;1.80;;;13.70;90.80;;;;;;5025261;28;20181;-66
2021/07/21 07:11:16;;;;;;;7.63;2.00;;;13.50;90.90;;;;;;5025942;28;20191;-67
2021/07/21 07:13:43;;;;;;;8.73;1.93;;;13.50;91.20;;;;;;5034238;28;20247;-66
2021/07/21 07:16:16;;;;;;;15.53;2.13;;;13.50;91.50;;;;;;5032481;28;20287;-66
2021/07/21 07:18:43;;;;;;;12.97;1.90;;;13.40;92.10;;;;;;5031647;28;20183;-65
2021/07/21 07:21:10;;;;;;;4.10;1.40;;;13.30;92.90;;;;;;5013945;28;20192;-65
2021/07/21 07:23:38;;;;;;;8.67;1.90;;;13.30;93.10;;;;;;5029434;28;20181;-66
2021/07/21 07:26:05;;;;;;;8.50;2.10;;;13.20;93.80;;;;;;5018620;28;20203;-65
2021/07/21 07:28:33;;;;;;;7.10;2.00;;;13.20;94.10;;;;;;5024630;28;20272;-65
2021/07/21 07:31:00;;;;;;;11.53;1.80;;;13.10;94.60;;;;;;5015350;28;20598;-65
2021/07/21 07:33:28;;;;;;;4.50;1.70;;;13.10;94.90;;;;;;5017297;28;20189;-66
2021/07/21 07:35:55;;;;;;;9.10;1.63;;;13.10;95.00;;;;;;5025648;28;20188;-66
2021/07/21 07:38:22;;;;;;;8.00;1.80;;;13.00;95.50;;;;;;5028642;28;20196;-66
2021/07/21 07:40:50;;;;;;;10.97;2.63;;;13.00;95.60;;;;;;5019211;28;20177;-66
2021/07/21 07:43:17;;;;;;;7.07;1.97;;;12.90;96.00;;;;;;5026634;28;20219;-67
2021/07/21 07:45:44;;;;;;;9.03;2.00;;;12.90;96.10;;;;;;5022621;28;20181;-65
2021/07/21 07:48:12;;;;;;;7.07;2.70;;;12.90;96.50;;;;;;5029334;28;20234;-66
2021/07/21 07:50:39;;;;;;;12.97;2.23;;;12.80;96.80;;;;;;5033318;28;20653;-67
2021/07/21 07:53:07;;;;;;;7.17;2.10;;;12.70;97.20;;;;;;5028900;28;20176;-67
2021/07/21 07:55:37;;;;;;;10.17;2.27;;;12.70;97.70;;;;;;5043931;28;20189;-67
2021/07/21 07:58:05;;;;;;;8.23;2.07;;;12.70;98.00;;;;;;5037814;28;20577;-66
2021/07/21 08:00:32;;;;;;;6.13;1.97;;;12.70;98.20;;;;;;5031249;28;20258;-66
2021/07/21 08:02:59;;;;;;;9.77;2.27;;;12.60;98.50;;;;;;5033156;28;20524;-66
2021/07/21 08:05:27;;;;;;;6.80;2.53;;;12.60;98.70;;;;;;5028216;28;20264;-66
2021/07/21 08:07:56;;;;;;;11.20;2.60;;;12.60;98.90;;;;;;5031252;28;20177;-68
2021/07/21 08:10:24;;;;;;;13.23;3.70;;;12.50;99.20;;;;;;5024424;28;20188;-68
2021/07/21 08:12:52;;;;;;;9.60;2.50;;;12.50;99.10;;;;;;4997133;28;20690;-67
2021/07/21 08:15:19;;;;;;;10.57;3.10;;;12.50;99.20;;;;;;5030982;28;20181;-68
2021/07/21 08:17:47;;;;;;;9.40;1.77;;;12.50;99.50;;;;;;5028876;28;20301;-67
2021/07/21 08:20:15;;;;;;;9.53;1.90;;;12.40;99.50;;;;;;5029273;28;20185;-67
2021/07/21 08:22:42;;;;;;;12.00;2.60;;;12.40;99.80;;;;;;5033029;28;20234;-67
2021/07/21 08:25:16;;;;;;;10.23;2.20;;;12.40;99.90;;;;;;5028910;28;20181;-67
2021/07/21 08:27:44;;;;;;;17.90;3.40;;;12.40;99.90;;;;;;5023349;28;20275;-68
2021/07/21 08:30:13;;;;;;;11.47;2.87;;;12.30;99.90;;;;;;5012700;28;20661;-67
2021/07/21 08:32:49;;;;;;;6.03;2.10;;;12.20;99.90;;;;;;5025203;28;20239;-67
2021/07/21 08:35:19;;;;;;;13.10;2.90;;;12.20;99.90;;;;;;5020520;28;20207;-68
2021/07/21 08:37:47;;;;;;;6.37;2.13;;;12.20;99.90;;;;;;5032681;28;20246;-69
2021/07/21 08:40:15;;;;;;;8.87;2.83;;;12.10;99.90;;;;;;5029305;28;20198;-67
2021/07/21 08:42:43;;;;;;;10.47;2.60;;;12.10;99.90;;;;;;5031706;28;20180;-67
2021/07/21 08:45:11;;;;;;;13.37;3.03;;;12.10;99.90;;;;;;5029281;28;20180;-67
2021/07/21 08:47:39;;;;;;;9.93;2.43;;;12.10;99.90;;;;;;5027767;28;20590;-68
2021/07/21 08:50:09;;;;;;;7.80;2.23;;;12.10;99.90;;;;;;5030938;28;20264;-68
2021/07/21 08:52:38;;;;;;;12.17;2.77;;;12.10;99.90;;;;;;5016560;28;20242;-68
2021/07/21 08:55:07;;;;;;;9.67;2.20;;;12.10;99.90;;;;;;5023651;28;20532;-67
2021/07/21 08:57:36;;;;;;;9.53;2.67;;;12.10;99.90;;;;;;5024966;28;20234;-66
2021/07/21 09:00:15;;;;;;;11.17;2.50;;;12.10;99.90;;;;;;5033445;28;20180;-68
2021/07/21 09:02:44;;;;;;;8.97;2.97;;;12.10;99.90;;;;;;5032785;28;20650;-67
2021/07/21 09:05:15;;;;;;;15.20;2.37;;;12.10;99.90;;;;;;5013447;28;20692;-65
2021/07/21 09:07:43;;;;;;;12.50;2.20;;;12.10;99.90;;;;;;5029055;28;20181;-66
2021/07/21 09:10:16;;;;;;;5.00;2.10;;;12.00;99.90;;;;;;5023424;28;20518;-66
2021/07/21 09:12:46;;;;;;;10.43;2.60;;;12.00;99.90;;;;;;5035465;28;20586;-66
2021/07/21 09:15:19;;;;;;;10.20;2.50;;;11.90;99.90;;;;;;5032886;28;20180;-66
2021/07/21 09:18:08;;;;;;;9.10;2.00;;;11.90;99.90;;;;;;5031076;28;20216;-67
2021/07/21 09:21:09;;;;;;;8.27;2.97;;;11.80;99.90;;;;;;5024081;28;20507;-66
2021/07/21 09:23:42;;;;;;;17.63;3.37;;;11.90;99.90;;;;;;5026505;28;20187;-68
2021/07/21 09:26:10;;;;;;;8.30;2.63;;;11.80;99.90;;;;;;5024634;28;20193;-67
2021/07/21 09:28:40;;;;;;;6.73;2.47;;;11.80;99.90;;;;;;5017343;28;20677;-68
2021/07/21 09:31:11;;;;;;;8.20;2.30;;;11.80;99.90;;;;;;5016051;28;20271;-66
2021/07/21 09:33:39;;;;;;;10.13;2.57;;;11.70;99.90;;;;;;5029957;28;20200;-66
2021/07/21 09:36:06;;;;;;;10.67;3.27;;;11.70;99.90;;;;;;5039865;28;20234;-67
2021/07/21 09:38:34;;;;;;;9.33;2.50;;;11.70;99.90;;;;;;5015705;28;20548;-67
2021/07/21 09:41:04;;;;;;;10.47;2.60;;;11.70;99.90;;;;;;5024768;28;20537;-66
2021/07/21 09:43:33;;;;;;;10.93;2.77;;;11.60;99.90;;;;;;5035993;28;20519;-67
2021/07/21 09:46:12;;;;;;;5.90;2.50;;;11.60;99.90;;;;;;5027242;28;20537;-66
2021/07/21 09:48:44;;;;;;;9.57;2.80;;;11.60;99.90;;;;;;5035147;28;20589;-66
2021/07/21 09:51:29;;;;;;;11.47;3.40;;;11.50;99.90;;;;;;5030192;28;20172;-66
2021/07/21 09:54:11;;;;;;;12.63;4.30;;;11.40;99.90;;;;;;5033697;28;20187;-67
2021/07/21 09:56:38;;;;;;;15.13;5.23;;;11.40;99.90;;;;;;5034050;28;20251;-66
2021/07/21 09:59:29;;;;;;;14.90;4.23;;;11.40;99.90;;;;;;5034524;28;20215;-67
2021/07/21 10:01:56;;;;;;;13.70;4.57;;;11.30;99.90;;;;;;5031787;28;20521;-67
2021/07/21 10:04:35;;;;;;;11.57;4.73;;;11.20;99.90;;;;;;5035563;28;20193;-68
2021/07/21 10:07:18;;;;;;;11.07;4.77;;;11.20;99.90;;;;;;5027360;28;20185;-68
2021/07/21 10:09:47;;;;;;;15.43;5.63;;;11.10;99.90;;;;;;5031240;28;20596;-67
2021/07/21 10:12:18;;;;;;;11.87;5.00;;;11.00;99.90;;;;;;5034447;28;20180;-68
2021/07/21 10:14:59;;;;;;;17.70;5.10;;;11.00;99.90;;;;;;5031333;28;20245;-67
2021/07/21 10:17:27;;;;;;;11.67;3.30;;;11.00;99.90;;;;;;5031034;28;20567;-67
2021/07/21 10:19:55;;;;;;;14.93;4.90;;;11.00;99.90;;;;;;5029829;28;20225;-66
2021/07/21 10:22:23;;;;;;;13.57;4.83;;;11.00;99.90;;;;;;5031933;28;20671;-68
2021/07/21 10:24:51;;;;;;;13.27;3.87;;;11.00;99.90;;;;;;5034769;28;20177;-67
2021/07/21 10:27:19;;;;;;;9.40;3.63;;;11.00;99.90;;;;;;5034432;28;20212;-68
2021/07/21 10:29:49;;;;;;;22.37;3.97;;;10.90;99.90;;;;;;5027136;28;20637;-68
2021/07/21 10:32:16;;;;;;;18.83;3.90;;;10.90;99.90;;;;;;5029017;28;20235;-68
2021/07/21 10:34:45;;;;;;;18.73;4.60;;;10.90;99.90;;;;;;5028163;28;20648;-68
2021/07/21 10:37:13;;;;;;;14.20;4.60;;;10.90;99.90;;;;;;5033381;28;20232;-67
2021/07/21 10:39:42;;;;;;;9.97;4.83;;;10.90;99.90;;;;;;5031597;28;20537;-67
2021/07/21 10:42:12;;;;;;;19.43;4.87;;;10.80;99.90;;;;;;5029859;28;20190;-68
2021/07/21 10:44:39;;;;;;;11.37;4.50;;;10.70;99.90;;;;;;5029028;28;20644;-68
2021/07/21 10:47:26;;;;;;;12.03;4.20;;;10.60;99.90;;;;;;5028607;28;20191;-68
2021/07/21 10:50:09;;;;;;;17.27;4.00;;;10.70;99.90;;;;;;5017330;28;20194;-67
2021/07/21 10:52:49;;;;;;;12.03;4.30;;;10.70;99.90;;;;;;5031513;28;20188;-67
2021/07/21 10:55:35;;;;;;;11.07;4.43;;;10.60;99.90;;;;;;5034654;28;20191;-68
2021/07/21 11:00:57;;;;;;;13.43;4.07;;;10.50;99.90;;;;;;5025015;28;20276;-67
2021/07/21 11:03:31;;;;;;;7.93;3.70;;;10.50;99.90;;;;;;5027287;28;20199;-67
2021/07/21 11:06:09;;;;;;;18.07;5.63;;;10.50;99.90;;;;;;5033814;28;20550;-68
2021/07/21 11:08:47;;;;;;;14.17;4.53;;;10.40;99.90;;;;;;5034603;28;20179;-67
2021/07/21 11:11:22;;;;;;;12.07;4.00;;;10.30;99.90;;;;;;5022092;28;20191;-66
2021/07/21 11:14:01;;;;;;;12.93;4.23;;;10.30;99.90;;;;;;5030201;28;20194;-67
2021/07/21 11:16:48;;;;;;;12.07;4.57;;;10.10;99.90;;;;;;5032688;28;20747;-67
2021/07/21 11:19:34;;;;;;;14.03;4.70;;;10.00;99.90;;;;;;5026479;28;20188;-66
2021/07/21 11:22:10;;;;;;;11.77;4.27;;;10.00;99.90;;;;;;5034329;28;20180;-67
2021/07/21 11:25:15;;;;;;;9.60;4.37;;;9.90;99.90;;;;;;5034023;28;20178;-67
2021/07/21 11:27:46;;;;;;;9.93;4.57;;;9.80;99.90;;;;;;5009386;28;20199;-67
2021/07/21 11:30:49;;;;;;;13.43;5.90;;;9.80;99.90;;;;;;5025070;28;20179;-67
2021/07/21 11:33:47;;;;;;;17.70;9.73;;;9.70;99.90;;;;;;5028886;28;20188;-67
2021/07/21 11:36:46;;;;;;;12.93;5.10;;;9.60;99.90;;;;;;5027493;28;20251;-67
2021/07/21 11:39:56;;;;;;;13.63;4.33;;;9.50;99.90;;;;;;5024440;28;20606;-67
2021/07/21 11:42:26;;;;;;;11.93;4.30;;;9.50;99.90;;;;;;5027696;28;20172;-68
2021/07/21 11:45:06;;;;;;;15.70;4.70;;;9.40;99.90;;;;;;5033369;28;20724;-67
2021/07/21 11:47:38;;;;;;;15.73;4.63;;;9.40;99.90;;;;;;5028846;28;20179;-67
2021/07/21 11:50:14;;;;;;;18.07;4.30;;;9.30;99.90;;;;;;5032422;28;20768;-66
2021/07/21 11:52:42;;;;;;;15.13;4.50;;;9.40;99.90;;;;;;5028180;28;20532;-67
2021/07/21 11:55:10;;;;;;;9.03;3.90;;;9.30;99.90;;;;;;5043136;28;20254;-66
2021/07/21 11:57:37;;;;;;;12.40;4.73;;;9.30;99.90;;;;;;5031683;28;20223;-68
2021/07/21 12:00:06;;;;;;;11.43;4.10;;;9.20;99.90;;;;;;5028608;28;20183;-67
2021/07/21 12:02:33;;;;;;;20.60;4.87;;;9.20;99.90;;;;;;5022925;28;20217;-67
2021/07/21 12:05:06;;;;;;;11.63;4.17;;;9.10;99.90;;;;;;5027745;28;20184;-67
2021/07/21 12:07:36;;;;;;;12.03;4.60;;;9.10;99.90;;;;;;5030859;28;20192;-67
2021/07/21 12:10:17;;;;;;;9.33;3.77;;;9.10;99.90;;;;;;5033257;28;20206;-67
2021/07/21 12:12:46;;;;;;;14.90;4.53;;;9.00;99.90;;;;;;5032688;28;20172;-67
2021/07/21 12:15:17;;;;;;;14.90;3.87;;;9.00;99.90;;;;;;5030482;28;20533;-67
2021/07/21 12:17:46;;;;;;;15.53;4.10;;;9.00;99.90;;;;;;5022720;28;20669;-66
2021/07/21 12:20:17;;;;;;;12.73;3.90;;;9.00;99.90;;;;;;5029162;28;20261;-68
2021/07/21 12:22:47;;;;;;;15.30;4.40;;;9.00;99.90;;;;;;5019083;28;20536;-69
2021/07/21 12:25:17;;;;;;;12.17;3.30;;;8.90;99.90;;;;;;5028643;28;20267;-67
2021/07/21 12:27:46;;;;;;;8.67;3.33;;;8.80;99.90;;;;;;5019009;28;20185;-67
2021/07/21 12:30:19;;;;;;;15.23;3.83;;;8.90;99.90;;;;;;5013802;28;20649;-67
2021/07/21 12:32:48;;;;;;;9.80;3.57;;;8.80;99.90;;;;;;5022223;28;20231;-68
2021/07/21 12:35:18;;;;;;;6.00;3.10;;;8.80;99.90;;;;;;5024981;28;20179;-66
2021/07/21 12:37:50;;;;;;;8.43;3.80;;;8.80;99.90;;;;;;5023963;28;20227;-66
2021/07/21 12:40:20;;;;;;;9.13;3.10;;;8.80;99.90;;;;;;5032949;28;20640;-66
2021/07/21 12:42:51;;;;;;;7.83;2.87;;;8.70;99.90;;;;;;5031264;28;20618;-68
2021/07/21 12:45:22;;;;;;;5.53;3.33;;;8.80;99.90;;;;;;5030775;28;20178;-67
2021/07/21 12:47:54;;;;;;;8.27;2.70;;;8.80;99.90;;;;;;5032550;28;20180;-66
2021/07/21 12:50:23;;;;;;;7.33;2.97;;;8.80;99.90;;;;;;5032400;28;20711;-66
2021/07/21 12:52:59;;;;;;;4.77;2.67;;;8.80;99.90;;;;;;5032388;28;20187;-66
2021/07/21 12:55:36;;;;;;;4.97;2.90;;;8.90;99.90;;;;;;5032769;28;20515;-68
2021/07/21 12:58:05;;;;;;;7.03;3.13;;;8.90;99.90;;;;;;5032058;28;20663;-67
2021/07/21 13:00:34;;;;;;;7.60;3.13;;;8.80;99.90;;;;;;5032816;28;20306;-67
2021/07/21 13:03:05;;;;;;;9.97;2.87;;;8.80;99.90;;;;;;5031900;28;20189;-67
2021/07/21 13:05:38;;;;;;;4.47;2.47;;;8.70;99.90;;;;;;5032520;28;20196;-67
2021/07/21 13:08:13;;;;;;;6.63;2.90;;;8.70;99.90;;;;;;5024868;28;20567;-66
2021/07/21 13:10:43;;;;;;;10.73;2.90;;;8.70;99.90;;;;;;5026518;28;20277;-67
2021/07/21 13:13:26;;;;;;;4.63;2.60;;;8.70;99.90;;;;;;5023977;28;20194;-65
2021/07/21 13:16:01;;;;;;;5.50;2.90;;;8.70;99.90;;;;;;5032114;28;20550;-65
2021/07/21 13:18:38;;;;;;;8.33;3.07;;;8.60;99.90;;;;;;5031747;28;20204;-66